Seattle, Washington
Traffic Map
Current Weather Conditions
Seattle, Washington
Overcast
Overcast
37°
Feels Like: 30°
Wind Chill: 30° Ceiling: 2200
Heat Index: 37° Visibility: 10mi
Dew Point: 34° Wind: 9mph
Humidity: 89% Direction: 140° (SE)
Pressure: 30.15in Gusts: 0mph
Raw Report DataKBFI 051053Z 14008KT 10SM BKN022 OVC027 03/01 A3015 RMK AO2 SLP208 T00280011 $
Traffic Incident Summary
Active as of:
Severity:
Category:
InformationThere was an issue retrieving the traffic information for this location. Please try a different location or try again shortly.
Advertisements
Track Severe Weather on mobile